sensor_id;sensor_type;location;lat;lon;timestamp;P1;durP1;ratioP1;P2;durP2;ratioP2
77876;SDS011;67251;50.844;7.978;2023-03-08T00:00:41;5.68;;;2.22;;
77876;SDS011;67251;50.844;7.978;2023-03-08T00:03:08;5.57;;;2.40;;
77876;SDS011;67251;50.844;7.978;2023-03-08T00:05:37;4.90;;;1.90;;
77876;SDS011;67251;50.844;7.978;2023-03-08T00:08:03;6.35;;;2.03;;
77876;SDS011;67251;50.844;7.978;2023-03-08T00:10:28;5.20;;;1.90;;
77876;SDS011;67251;50.844;7.978;2023-03-08T00:12:54;6.38;;;2.15;;
77876;SDS011;67251;50.844;7.978;2023-03-08T00:15:19;6.78;;;2.22;;
77876;SDS011;67251;50.844;7.978;2023-03-08T00:17:45;6.03;;;1.95;;
77876;SDS011;67251;50.844;7.978;2023-03-08T00:20:10;4.82;;;1.75;;
77876;SDS011;67251;50.844;7.978;2023-03-08T00:22:37;5.20;;;2.17;;
77876;SDS011;67251;50.844;7.978;2023-03-08T00:25:04;7.57;;;2.40;;
77876;SDS011;67251;50.844;7.978;2023-03-08T00:27:30;4.90;;;1.90;;
77876;SDS011;67251;50.844;7.978;2023-03-08T00:29:55;5.70;;;2.10;;
77876;SDS011;67251;50.844;7.978;2023-03-08T00:32:21;7.03;;;2.58;;
77876;SDS011;67251;50.844;7.978;2023-03-08T00:34:46;9.13;;;2.10;;
77876;SDS011;67251;50.844;7.978;2023-03-08T00:37:12;5.65;;;1.95;;
77876;SDS011;67251;50.844;7.978;2023-03-08T00:39:38;4.80;;;1.65;;
77876;SDS011;67251;50.844;7.978;2023-03-08T00:42:03;3.97;;;1.50;;
77876;SDS011;67251;50.844;7.978;2023-03-08T00:44:29;4.40;;;1.60;;
77876;SDS011;67251;50.844;7.978;2023-03-08T00:46:54;5.38;;;2.00;;
77876;SDS011;67251;50.844;7.978;2023-03-08T00:49:19;5.25;;;1.92;;
77876;SDS011;67251;50.844;7.978;2023-03-08T00:51:46;5.75;;;2.10;;
77876;SDS011;67251;50.844;7.978;2023-03-08T00:54:12;5.80;;;1.60;;
77876;SDS011;67251;50.844;7.978;2023-03-08T00:56:37;4.93;;;1.90;;
77876;SDS011;67251;50.844;7.978;2023-03-08T00:59:03;6.65;;;1.73;;
77876;SDS011;67251;50.844;7.978;2023-03-08T01:01:28;4.22;;;1.73;;
77876;SDS011;67251;50.844;7.978;2023-03-08T01:03:53;5.68;;;2.10;;
77876;SDS011;67251;50.844;7.978;2023-03-08T01:06:19;4.43;;;1.48;;
77876;SDS011;67251;50.844;7.978;2023-03-08T01:08:44;5.15;;;2.00;;
77876;SDS011;67251;50.844;7.978;2023-03-08T01:11:14;5.38;;;1.90;;
77876;SDS011;67251;50.844;7.978;2023-03-08T01:13:50;7.13;;;2.25;;
77876;SDS011;67251;50.844;7.978;2023-03-08T01:16:17;5.80;;;2.15;;
77876;SDS011;67251;50.844;7.978;2023-03-08T01:18:45;6.78;;;1.85;;
77876;SDS011;67251;50.844;7.978;2023-03-08T01:21:11;7.50;;;2.03;;
77876;SDS011;67251;50.844;7.978;2023-03-08T01:23:36;4.18;;;1.48;;
77876;SDS011;67251;50.844;7.978;2023-03-08T01:26:03;4.45;;;1.67;;
77876;SDS011;67251;50.844;7.978;2023-03-08T01:28:30;4.88;;;1.85;;
77876;SDS011;67251;50.844;7.978;2023-03-08T01:31:00;6.55;;;1.92;;
77876;SDS011;67251;50.844;7.978;2023-03-08T01:33:27;4.93;;;1.90;;
77876;SDS011;67251;50.844;7.978;2023-03-08T01:35:52;5.95;;;1.95;;
77876;SDS011;67251;50.844;7.978;2023-03-08T01:38:17;4.97;;;1.77;;
77876;SDS011;67251;50.844;7.978;2023-03-08T01:40:43;5.07;;;2.03;;
77876;SDS011;67251;50.844;7.978;2023-03-08T01:43:21;4.78;;;1.80;;
77876;SDS011;67251;50.844;7.978;2023-03-08T01:56:47;4.18;;;1.55;;
77876;SDS011;67251;50.844;7.978;2023-03-08T01:59:15;6.43;;;2.20;;
77876;SDS011;67251;50.844;7.978;2023-03-08T02:01:41;5.63;;;1.80;;
77876;SDS011;67251;50.844;7.978;2023-03-08T02:04:07;6.00;;;1.85;;
77876;SDS011;67251;50.844;7.978;2023-03-08T02:06:34;7.28;;;1.70;;
77876;SDS011;67251;50.844;7.978;2023-03-08T02:08:59;3.72;;;1.20;;
77876;SDS011;67251;50.844;7.978;2023-03-08T02:11:28;4.55;;;1.80;;
77876;SDS011;67251;50.844;7.978;2023-03-08T02:13:54;5.38;;;1.52;;
77876;SDS011;67251;50.844;7.978;2023-03-08T02:16:21;3.35;;;1.23;;
77876;SDS011;67251;50.844;7.978;2023-03-08T02:21:45;4.65;;;1.60;;
77876;SDS011;67251;50.844;7.978;2023-03-08T02:24:18;5.80;;;1.63;;
77876;SDS011;67251;50.844;7.978;2023-03-08T02:26:45;8.80;;;1.65;;
77876;SDS011;67251;50.844;7.978;2023-03-08T02:29:11;4.03;;;1.55;;
77876;SDS011;67251;50.844;7.978;2023-03-08T02:31:36;4.13;;;1.52;;
77876;SDS011;67251;50.844;7.978;2023-03-08T02:34:02;6.10;;;1.58;;
77876;SDS011;67251;50.844;7.978;2023-03-08T02:36:27;4.68;;;1.45;;
77876;SDS011;67251;50.844;7.978;2023-03-08T02:38:53;5.13;;;1.50;;
77876;SDS011;67251;50.844;7.978;2023-03-08T02:41:18;5.18;;;1.70;;
77876;SDS011;67251;50.844;7.978;2023-03-08T02:43:44;4.05;;;1.50;;
77876;SDS011;67251;50.844;7.978;2023-03-08T02:46:13;5.57;;;1.42;;
77876;SDS011;67251;50.844;7.978;2023-03-08T02:48:38;4.85;;;1.50;;
77876;SDS011;67251;50.844;7.978;2023-03-08T02:51:04;4.05;;;1.70;;
77876;SDS011;67251;50.844;7.978;2023-03-08T02:53:29;4.75;;;1.80;;
77876;SDS011;67251;50.844;7.978;2023-03-08T02:55:55;4.32;;;1.55;;
77876;SDS011;67251;50.844;7.978;2023-03-08T02:58:20;6.50;;;1.73;;
77876;SDS011;67251;50.844;7.978;2023-03-08T03:00:46;5.88;;;2.10;;
77876;SDS011;67251;50.844;7.978;2023-03-08T03:03:11;6.40;;;2.05;;
77876;SDS011;67251;50.844;7.978;2023-03-08T03:05:40;4.72;;;1.75;;
77876;SDS011;67251;50.844;7.978;2023-03-08T03:08:07;4.25;;;1.73;;
77876;SDS011;67251;50.844;7.978;2023-03-08T03:10:33;6.72;;;1.90;;
77876;SDS011;67251;50.844;7.978;2023-03-08T03:13:00;5.75;;;2.20;;
77876;SDS011;67251;50.844;7.978;2023-03-08T03:15:25;5.13;;;1.95;;
77876;SDS011;67251;50.844;7.978;2023-03-08T03:17:51;10.30;;;3.35;;
77876;SDS011;67251;50.844;7.978;2023-03-08T03:20:17;10.10;;;2.80;;
77876;SDS011;67251;50.844;7.978;2023-03-08T03:22:42;10.73;;;2.83;;
77876;SDS011;67251;50.844;7.978;2023-03-08T03:25:09;8.10;;;2.65;;
77876;SDS011;67251;50.844;7.978;2023-03-08T03:27:34;28.42;;;9.02;;
77876;SDS011;67251;50.844;7.978;2023-03-08T03:29:59;15.10;;;4.82;;
77876;SDS011;67251;50.844;7.978;2023-03-08T03:32:25;8.43;;;2.70;;
77876;SDS011;67251;50.844;7.978;2023-03-08T03:34:51;8.82;;;3.00;;
77876;SDS011;67251;50.844;7.978;2023-03-08T03:37:16;10.65;;;3.50;;
77876;SDS011;67251;50.844;7.978;2023-03-08T03:39:42;12.77;;;3.90;;
77876;SDS011;67251;50.844;7.978;2023-03-08T03:42:07;5.05;;;1.90;;
77876;SDS011;67251;50.844;7.978;2023-03-08T03:44:33;5.40;;;2.03;;
77876;SDS011;67251;50.844;7.978;2023-03-08T03:46:58;5.25;;;2.08;;
77876;SDS011;67251;50.844;7.978;2023-03-08T03:49:25;8.35;;;2.40;;
77876;SDS011;67251;50.844;7.978;2023-03-08T03:51:50;10.00;;;3.45;;
77876;SDS011;67251;50.844;7.978;2023-03-08T03:54:16;9.77;;;3.03;;
77876;SDS011;67251;50.844;7.978;2023-03-08T03:56:41;15.05;;;4.32;;
77876;SDS011;67251;50.844;7.978;2023-03-08T03:59:07;8.32;;;3.30;;
77876;SDS011;67251;50.844;7.978;2023-03-08T04:01:32;11.57;;;4.05;;
77876;SDS011;67251;50.844;7.978;2023-03-08T04:03:57;13.95;;;3.70;;
77876;SDS011;67251;50.844;7.978;2023-03-08T04:06:27;11.20;;;3.55;;
77876;SDS011;67251;50.844;7.978;2023-03-08T04:08:55;8.43;;;3.08;;
77876;SDS011;67251;50.844;7.978;2023-03-08T04:11:22;8.98;;;2.95;;
77876;SDS011;67251;50.844;7.978;2023-03-08T04:13:50;8.55;;;2.88;;
77876;SDS011;67251;50.844;7.978;2023-03-08T04:18:45;7.38;;;2.60;;
77876;SDS011;67251;50.844;7.978;2023-03-08T04:21:12;6.20;;;2.33;;
77876;SDS011;67251;50.844;7.978;2023-03-08T04:23:39;7.53;;;2.45;;
77876;SDS011;67251;50.844;7.978;2023-03-08T04:26:05;4.90;;;2.00;;
77876;SDS011;67251;50.844;7.978;2023-03-08T04:28:31;7.13;;;2.53;;
77876;SDS011;67251;50.844;7.978;2023-03-08T04:30:58;5.10;;;2.25;;
77876;SDS011;67251;50.844;7.978;2023-03-08T04:33:24;5.35;;;1.70;;
77876;SDS011;67251;50.844;7.978;2023-03-08T04:35:49;6.70;;;2.13;;
77876;SDS011;67251;50.844;7.978;2023-03-08T04:38:15;4.55;;;1.73;;
77876;SDS011;67251;50.844;7.978;2023-03-08T04:40:51;5.88;;;2.00;;
77876;SDS011;67251;50.844;7.978;2023-03-08T04:43:35;6.90;;;2.45;;
77876;SDS011;67251;50.844;7.978;2023-03-08T04:46:00;7.05;;;2.40;;
77876;SDS011;67251;50.844;7.978;2023-03-08T04:48:26;5.97;;;2.10;;
77876;SDS011;67251;50.844;7.978;2023-03-08T04:50:55;5.00;;;1.42;;
77876;SDS011;67251;50.844;7.978;2023-03-08T04:53:23;6.13;;;2.58;;
77876;SDS011;67251;50.844;7.978;2023-03-08T04:55:49;5.55;;;2.33;;
77876;SDS011;67251;50.844;7.978;2023-03-08T04:58:15;7.75;;;2.70;;
77876;SDS011;67251;50.844;7.978;2023-03-08T05:00:41;5.95;;;2.13;;
77876;SDS011;67251;50.844;7.978;2023-03-08T05:03:06;9.18;;;2.67;;
77876;SDS011;67251;50.844;7.978;2023-03-08T05:05:32;5.50;;;1.65;;
77876;SDS011;67251;50.844;7.978;2023-03-08T05:07:58;5.18;;;1.83;;
77876;SDS011;67251;50.844;7.978;2023-03-08T05:10:29;5.93;;;1.98;;
77876;SDS011;67251;50.844;7.978;2023-03-08T05:12:54;6.25;;;1.95;;
77876;SDS011;67251;50.844;7.978;2023-03-08T05:15:20;5.40;;;2.00;;
77876;SDS011;67251;50.844;7.978;2023-03-08T05:17:47;7.75;;;2.25;;
77876;SDS011;67251;50.844;7.978;2023-03-08T05:20:13;7.53;;;1.70;;
77876;SDS011;67251;50.844;7.978;2023-03-08T05:22:39;5.32;;;1.60;;
77876;SDS011;67251;50.844;7.978;2023-03-08T05:25:04;4.72;;;1.63;;
77876;SDS011;67251;50.844;7.978;2023-03-08T05:27:31;7.28;;;2.20;;
77876;SDS011;67251;50.844;7.978;2023-03-08T05:29:57;6.93;;;2.17;;
77876;SDS011;67251;50.844;7.978;2023-03-08T05:32:22;5.50;;;2.05;;
77876;SDS011;67251;50.844;7.978;2023-03-08T05:34:48;5.18;;;2.20;;
77876;SDS011;67251;50.844;7.978;2023-03-08T05:37:14;5.80;;;2.00;;
77876;SDS011;67251;50.844;7.978;2023-03-08T05:39:39;5.18;;;1.83;;
77876;SDS011;67251;50.844;7.978;2023-03-08T05:42:05;4.43;;;1.73;;
77876;SDS011;67251;50.844;7.978;2023-03-08T05:44:30;7.75;;;2.35;;
77876;SDS011;67251;50.844;7.978;2023-03-08T05:46:56;6.03;;;2.08;;
77876;SDS011;67251;50.844;7.978;2023-03-08T05:49:21;7.22;;;2.25;;
77876;SDS011;67251;50.844;7.978;2023-03-08T05:51:47;6.50;;;2.20;;
77876;SDS011;67251;50.844;7.978;2023-03-08T05:54:12;6.03;;;2.30;;
77876;SDS011;67251;50.844;7.978;2023-03-08T05:56:37;5.25;;;2.03;;
77876;SDS011;67251;50.844;7.978;2023-03-08T05:59:03;4.63;;;1.70;;
77876;SDS011;67251;50.844;7.978;2023-03-08T06:01:28;4.25;;;1.67;;
77876;SDS011;67251;50.844;7.978;2023-03-08T06:03:54;4.72;;;1.63;;
77876;SDS011;67251;50.844;7.978;2023-03-08T06:06:22;2.30;;;0.93;;
77876;SDS011;67251;50.844;7.978;2023-03-08T06:08:49;4.78;;;1.60;;
77876;SDS011;67251;50.844;7.978;2023-03-08T06:11:16;4.95;;;1.90;;
77876;SDS011;67251;50.844;7.978;2023-03-08T06:13:42;6.65;;;2.10;;
77876;SDS011;67251;50.844;7.978;2023-03-08T06:16:08;6.53;;;2.25;;
77876;SDS011;67251;50.844;7.978;2023-03-08T06:18:35;6.07;;;2.17;;
77876;SDS011;67251;50.844;7.978;2023-03-08T06:23:29;6.25;;;2.15;;
77876;SDS011;67251;50.844;7.978;2023-03-08T06:25:56;4.80;;;1.55;;
77876;SDS011;67251;50.844;7.978;2023-03-08T06:28:22;5.47;;;1.42;;
77876;SDS011;67251;50.844;7.978;2023-03-08T06:30:48;5.80;;;2.10;;
77876;SDS011;67251;50.844;7.978;2023-03-08T06:33:14;5.38;;;1.70;;
77876;SDS011;67251;50.844;7.978;2023-03-08T06:35:40;6.20;;;1.88;;
77876;SDS011;67251;50.844;7.978;2023-03-08T06:38:06;3.45;;;1.30;;
77876;SDS011;67251;50.844;7.978;2023-03-08T06:40:32;5.18;;;1.33;;
77876;SDS011;67251;50.844;7.978;2023-03-08T06:42:57;2.47;;;0.98;;
77876;SDS011;67251;50.844;7.978;2023-03-08T06:45:23;3.47;;;1.30;;
77876;SDS011;67251;50.844;7.978;2023-03-08T06:47:48;5.07;;;1.83;;
77876;SDS011;67251;50.844;7.978;2023-03-08T06:50:13;2.38;;;1.02;;
77876;SDS011;67251;50.844;7.978;2023-03-08T06:52:39;4.78;;;1.13;;
77876;SDS011;67251;50.844;7.978;2023-03-08T06:55:04;3.47;;;1.63;;
77876;SDS011;67251;50.844;7.978;2023-03-08T06:57:30;3.95;;;1.65;;
77876;SDS011;67251;50.844;7.978;2023-03-08T06:59:56;3.70;;;1.25;;
77876;SDS011;67251;50.844;7.978;2023-03-08T07:02:21;7.05;;;2.28;;
77876;SDS011;67251;50.844;7.978;2023-03-08T07:04:47;6.70;;;2.63;;
77876;SDS011;67251;50.844;7.978;2023-03-08T07:07:12;3.78;;;1.20;;
77876;SDS011;67251;50.844;7.978;2023-03-08T07:09:38;4.70;;;1.48;;
77876;SDS011;67251;50.844;7.978;2023-03-08T07:12:03;3.42;;;1.10;;
77876;SDS011;67251;50.844;7.978;2023-03-08T07:14:29;6.65;;;1.85;;
77876;SDS011;67251;50.844;7.978;2023-03-08T07:16:54;4.65;;;1.40;;
77876;SDS011;67251;50.844;7.978;2023-03-08T07:19:19;5.82;;;2.65;;
77876;SDS011;67251;50.844;7.978;2023-03-08T07:21:45;5.75;;;1.98;;
77876;SDS011;67251;50.844;7.978;2023-03-08T07:24:10;5.22;;;2.10;;
77876;SDS011;67251;50.844;7.978;2023-03-08T07:26:36;6.65;;;2.45;;
77876;SDS011;67251;50.844;7.978;2023-03-08T07:29:01;7.40;;;2.05;;
77876;SDS011;67251;50.844;7.978;2023-03-08T07:31:26;6.10;;;1.90;;
77876;SDS011;67251;50.844;7.978;2023-03-08T07:33:53;4.93;;;1.80;;
77876;SDS011;67251;50.844;7.978;2023-03-08T07:36:19;4.78;;;1.40;;
77876;SDS011;67251;50.844;7.978;2023-03-08T07:38:45;4.68;;;1.67;;
77876;SDS011;67251;50.844;7.978;2023-03-08T07:41:11;3.63;;;1.48;;
77876;SDS011;67251;50.844;7.978;2023-03-08T07:43:37;4.93;;;1.70;;
77876;SDS011;67251;50.844;7.978;2023-03-08T07:46:02;6.03;;;1.80;;
77876;SDS011;67251;50.844;7.978;2023-03-08T07:48:28;3.90;;;1.45;;
77876;SDS011;67251;50.844;7.978;2023-03-08T07:50:58;4.07;;;1.65;;
77876;SDS011;67251;50.844;7.978;2023-03-08T07:53:30;4.20;;;1.77;;
77876;SDS011;67251;50.844;7.978;2023-03-08T07:55:56;3.85;;;1.30;;
77876;SDS011;67251;50.844;7.978;2023-03-08T07:58:23;4.93;;;1.40;;
77876;SDS011;67251;50.844;7.978;2023-03-08T08:00:48;3.42;;;1.40;;
77876;SDS011;67251;50.844;7.978;2023-03-08T08:03:13;4.05;;;1.27;;
77876;SDS011;67251;50.844;7.978;2023-03-08T08:05:39;2.55;;;0.90;;
77876;SDS011;67251;50.844;7.978;2023-03-08T08:08:04;3.60;;;1.20;;
77876;SDS011;67251;50.844;7.978;2023-03-08T08:10:30;3.83;;;1.42;;
77876;SDS011;67251;50.844;7.978;2023-03-08T08:12:55;4.22;;;1.40;;
77876;SDS011;67251;50.844;7.978;2023-03-08T08:15:20;3.10;;;1.20;;
77876;SDS011;67251;50.844;7.978;2023-03-08T08:17:49;1.60;;;0.60;;
77876;SDS011;67251;50.844;7.978;2023-03-08T08:20:14;2.92;;;1.20;;
77876;SDS011;67251;50.844;7.978;2023-03-08T08:22:40;3.05;;;1.10;;
77876;SDS011;67251;50.844;7.978;2023-03-08T08:25:06;3.45;;;1.02;;
77876;SDS011;67251;50.844;7.978;2023-03-08T08:27:32;3.78;;;1.25;;
77876;SDS011;67251;50.844;7.978;2023-03-08T08:29:58;4.43;;;1.23;;
77876;SDS011;67251;50.844;7.978;2023-03-08T08:32:24;4.53;;;1.67;;
77876;SDS011;67251;50.844;7.978;2023-03-08T08:34:50;3.55;;;1.38;;
77876;SDS011;67251;50.844;7.978;2023-03-08T08:37:15;3.72;;;1.33;;
77876;SDS011;67251;50.844;7.978;2023-03-08T08:39:41;4.20;;;1.48;;
77876;SDS011;67251;50.844;7.978;2023-03-08T08:42:06;4.13;;;1.10;;
77876;SDS011;67251;50.844;7.978;2023-03-08T08:44:32;3.05;;;1.35;;
77876;SDS011;67251;50.844;7.978;2023-03-08T08:46:57;3.22;;;1.20;;
77876;SDS011;67251;50.844;7.978;2023-03-08T08:49:23;3.33;;;1.20;;
77876;SDS011;67251;50.844;7.978;2023-03-08T08:51:48;4.00;;;1.38;;
77876;SDS011;67251;50.844;7.978;2023-03-08T08:54:14;4.00;;;1.40;;
77876;SDS011;67251;50.844;7.978;2023-03-08T08:56:40;4.28;;;1.60;;
77876;SDS011;67251;50.844;7.978;2023-03-08T08:59:07;4.68;;;1.52;;
77876;SDS011;67251;50.844;7.978;2023-03-08T09:01:34;4.55;;;1.70;;
77876;SDS011;67251;50.844;7.978;2023-03-08T09:04:03;4.00;;;1.40;;
77876;SDS011;67251;50.844;7.978;2023-03-08T09:06:29;7.88;;;3.30;;
77876;SDS011;67251;50.844;7.978;2023-03-08T09:08:56;5.20;;;1.20;;
77876;SDS011;67251;50.844;7.978;2023-03-08T09:11:23;4.15;;;1.80;;
77876;SDS011;67251;50.844;7.978;2023-03-08T09:13:49;5.28;;;1.83;;
77876;SDS011;67251;50.844;7.978;2023-03-08T09:16:16;5.85;;;1.98;;
77876;SDS011;67251;50.844;7.978;2023-03-08T09:18:49;4.40;;;1.55;;
77876;SDS011;67251;50.844;7.978;2023-03-08T09:21:16;3.83;;;1.52;;
77876;SDS011;67251;50.844;7.978;2023-03-08T09:23:41;5.40;;;1.52;;
77876;SDS011;67251;50.844;7.978;2023-03-08T09:26:07;7.20;;;2.28;;
77876;SDS011;67251;50.844;7.978;2023-03-08T09:28:33;5.35;;;1.85;;
77876;SDS011;67251;50.844;7.978;2023-03-08T09:30:58;4.95;;;2.13;;
77876;SDS011;67251;50.844;7.978;2023-03-08T09:33:24;4.80;;;1.55;;
77876;SDS011;67251;50.844;7.978;2023-03-08T09:35:56;5.07;;;1.77;;
77876;SDS011;67251;50.844;7.978;2023-03-08T09:38:23;6.60;;;3.15;;
77876;SDS011;67251;50.844;7.978;2023-03-08T09:40:52;5.90;;;2.40;;
77876;SDS011;67251;50.844;7.978;2023-03-08T09:43:36;5.38;;;2.00;;
77876;SDS011;67251;50.844;7.978;2023-03-08T09:46:13;4.95;;;2.33;;
77876;SDS011;67251;50.844;7.978;2023-03-08T09:48:46;4.88;;;1.77;;
77876;SDS011;67251;50.844;7.978;2023-03-08T09:51:14;4.30;;;1.98;;
77876;SDS011;67251;50.844;7.978;2023-03-08T09:53:45;4.68;;;1.95;;
77876;SDS011;67251;50.844;7.978;2023-03-08T09:58:46;4.95;;;1.80;;
77876;SDS011;67251;50.844;7.978;2023-03-08T10:01:23;6.05;;;2.05;;
77876;SDS011;67251;50.844;7.978;2023-03-08T10:09:34;5.50;;;2.17;;
77876;SDS011;67251;50.844;7.978;2023-03-08T10:15:06;7.50;;;3.20;;
77876;SDS011;67251;50.844;7.978;2023-03-08T10:18:03;5.57;;;2.20;;
77876;SDS011;67251;50.844;7.978;2023-03-08T10:20:55;7.45;;;2.92;;
77876;SDS011;67251;50.844;7.978;2023-03-08T10:23:23;34.83;;;13.25;;
77876;SDS011;67251;50.844;7.978;2023-03-08T10:25:50;5.97;;;2.38;;
77876;SDS011;67251;50.844;7.978;2023-03-08T10:28:17;4.93;;;2.00;;
77876;SDS011;67251;50.844;7.978;2023-03-08T10:33:11;8.60;;;3.42;;
77876;SDS011;67251;50.844;7.978;2023-03-08T10:35:59;6.85;;;2.65;;
77876;SDS011;67251;50.844;7.978;2023-03-08T10:38:27;6.28;;;2.10;;
77876;SDS011;67251;50.844;7.978;2023-03-08T10:41:13;8.02;;;2.50;;
77876;SDS011;67251;50.844;7.978;2023-03-08T10:43:48;5.60;;;2.25;;
77876;SDS011;67251;50.844;7.978;2023-03-08T10:46:17;8.93;;;2.38;;
77876;SDS011;67251;50.844;7.978;2023-03-08T10:48:44;5.43;;;2.50;;
77876;SDS011;67251;50.844;7.978;2023-03-08T10:54:02;6.45;;;2.80;;
77876;SDS011;67251;50.844;7.978;2023-03-08T10:56:40;5.70;;;2.65;;
77876;SDS011;67251;50.844;7.978;2023-03-08T10:59:22;8.18;;;3.42;;
77876;SDS011;67251;50.844;7.978;2023-03-08T11:01:57;6.93;;;2.58;;
77876;SDS011;67251;50.844;7.978;2023-03-08T11:04:25;5.15;;;2.10;;
77876;SDS011;67251;50.844;7.978;2023-03-08T11:06:55;5.60;;;1.95;;
77876;SDS011;67251;50.844;7.978;2023-03-08T11:09:22;4.75;;;2.13;;
77876;SDS011;67251;50.844;7.978;2023-03-08T11:11:54;7.05;;;3.00;;
77876;SDS011;67251;50.844;7.978;2023-03-08T11:14:21;6.07;;;3.00;;
77876;SDS011;67251;50.844;7.978;2023-03-08T11:22:07;8.52;;;3.67;;
77876;SDS011;67251;50.844;7.978;2023-03-08T11:32:37;7.65;;;3.10;;
77876;SDS011;67251;50.844;7.978;2023-03-08T11:38:05;6.30;;;2.65;;
77876;SDS011;67251;50.844;7.978;2023-03-08T11:46:03;7.18;;;2.33;;
77876;SDS011;67251;50.844;7.978;2023-03-08T12:01:55;7.22;;;3.22;;
77876;SDS011;67251;50.844;7.978;2023-03-08T12:04:34;5.53;;;2.47;;
77876;SDS011;67251;50.844;7.978;2023-03-08T12:07:30;6.25;;;3.08;;
77876;SDS011;67251;50.844;7.978;2023-03-08T12:13:33;6.15;;;2.92;;
77876;SDS011;67251;50.844;7.978;2023-03-08T12:15:57;6.85;;;3.38;;
77876;SDS011;67251;50.844;7.978;2023-03-08T12:18:35;8.88;;;3.58;;
77876;SDS011;67251;50.844;7.978;2023-03-08T12:27:23;6.95;;;3.50;;
77876;SDS011;67251;50.844;7.978;2023-03-08T12:30:02;6.93;;;3.05;;
77876;SDS011;67251;50.844;7.978;2023-03-08T12:32:38;8.35;;;2.72;;
77876;SDS011;67251;50.844;7.978;2023-03-08T12:35:27;5.80;;;2.60;;
77876;SDS011;67251;50.844;7.978;2023-03-08T12:40:37;8.18;;;3.25;;
77876;SDS011;67251;50.844;7.978;2023-03-08T12:43:56;8.70;;;2.67;;
77876;SDS011;67251;50.844;7.978;2023-03-08T12:56:32;6.55;;;3.53;;
77876;SDS011;67251;50.844;7.978;2023-03-08T12:59:25;7.80;;;3.42;;
77876;SDS011;67251;50.844;7.978;2023-03-08T13:01:45;5.40;;;2.75;;
77876;SDS011;67251;50.844;7.978;2023-03-08T13:04:37;6.95;;;2.92;;
77876;SDS011;67251;50.844;7.978;2023-03-08T13:20:16;6.78;;;3.25;;
77876;SDS011;67251;50.844;7.978;2023-03-08T13:28:09;7.00;;;3.10;;
77876;SDS011;67251;50.844;7.978;2023-03-08T13:30:39;6.38;;;2.80;;
77876;SDS011;67251;50.844;7.978;2023-03-08T13:33:28;6.57;;;2.78;;
77876;SDS011;67251;50.844;7.978;2023-03-08T13:36:03;4.90;;;2.15;;
77876;SDS011;67251;50.844;7.978;2023-03-08T13:38:32;8.20;;;2.83;;
77876;SDS011;67251;50.844;7.978;2023-03-08T13:41:00;6.07;;;2.03;;
77876;SDS011;67251;50.844;7.978;2023-03-08T13:43:27;7.78;;;2.72;;
77876;SDS011;67251;50.844;7.978;2023-03-08T13:45:56;6.75;;;2.63;;
77876;SDS011;67251;50.844;7.978;2023-03-08T13:48:23;5.88;;;2.67;;
77876;SDS011;67251;50.844;7.978;2023-03-08T13:50:53;5.40;;;2.25;;
77876;SDS011;67251;50.844;7.978;2023-03-08T13:53:22;6.47;;;2.85;;
77876;SDS011;67251;50.844;7.978;2023-03-08T13:55:51;6.13;;;2.92;;
77876;SDS011;67251;50.844;7.978;2023-03-08T14:01:10;6.47;;;3.20;;
77876;SDS011;67251;50.844;7.978;2023-03-08T14:03:35;7.97;;;3.35;;
77876;SDS011;67251;50.844;7.978;2023-03-08T14:06:00;7.28;;;3.25;;
77876;SDS011;67251;50.844;7.978;2023-03-08T14:08:26;7.07;;;2.85;;
77876;SDS011;67251;50.844;7.978;2023-03-08T14:10:58;6.97;;;3.00;;
77876;SDS011;67251;50.844;7.978;2023-03-08T14:13:34;6.18;;;2.65;;
77876;SDS011;67251;50.844;7.978;2023-03-08T14:16:02;8.45;;;2.92;;
77876;SDS011;67251;50.844;7.978;2023-03-08T14:18:32;6.95;;;3.33;;
77876;SDS011;67251;50.844;7.978;2023-03-08T14:23:30;7.05;;;3.47;;
77876;SDS011;67251;50.844;7.978;2023-03-08T14:26:01;6.85;;;3.03;;
77876;SDS011;67251;50.844;7.978;2023-03-08T14:28:34;7.82;;;2.92;;
77876;SDS011;67251;50.844;7.978;2023-03-08T14:31:01;5.07;;;2.63;;
77876;SDS011;67251;50.844;7.978;2023-03-08T14:33:27;6.32;;;3.08;;
77876;SDS011;67251;50.844;7.978;2023-03-08T14:35:54;6.90;;;2.70;;
77876;SDS011;67251;50.844;7.978;2023-03-08T14:38:25;7.03;;;2.60;;
77876;SDS011;67251;50.844;7.978;2023-03-08T14:40:53;6.32;;;2.80;;
77876;SDS011;67251;50.844;7.978;2023-03-08T14:43:20;6.97;;;2.95;;
77876;SDS011;67251;50.844;7.978;2023-03-08T14:48:28;6.63;;;3.17;;
77876;SDS011;67251;50.844;7.978;2023-03-08T14:50:59;6.32;;;3.15;;
77876;SDS011;67251;50.844;7.978;2023-03-08T14:53:31;9.63;;;4.00;;
77876;SDS011;67251;50.844;7.978;2023-03-08T14:56:10;9.55;;;4.35;;
77876;SDS011;67251;50.844;7.978;2023-03-08T14:58:39;9.02;;;4.20;;
77876;SDS011;67251;50.844;7.978;2023-03-08T15:01:06;10.20;;;4.15;;
77876;SDS011;67251;50.844;7.978;2023-03-08T15:03:32;7.57;;;4.10;;
77876;SDS011;67251;50.844;7.978;2023-03-08T15:05:58;11.45;;;5.43;;
77876;SDS011;67251;50.844;7.978;2023-03-08T15:08:30;8.13;;;4.35;;
77876;SDS011;67251;50.844;7.978;2023-03-08T15:10:55;10.50;;;4.68;;
77876;SDS011;67251;50.844;7.978;2023-03-08T15:13:21;9.15;;;4.40;;
77876;SDS011;67251;50.844;7.978;2023-03-08T15:15:47;9.07;;;4.30;;
77876;SDS011;67251;50.844;7.978;2023-03-08T15:18:13;10.32;;;4.10;;
77876;SDS011;67251;50.844;7.978;2023-03-08T15:20:41;12.02;;;5.80;;
77876;SDS011;67251;50.844;7.978;2023-03-08T15:23:12;11.35;;;5.05;;
77876;SDS011;67251;50.844;7.978;2023-03-08T15:25:43;10.35;;;4.07;;
77876;SDS011;67251;50.844;7.978;2023-03-08T15:28:09;14.05;;;5.68;;
77876;SDS011;67251;50.844;7.978;2023-03-08T15:30:38;20.42;;;8.55;;
77876;SDS011;67251;50.844;7.978;2023-03-08T15:33:04;76.07;;;27.67;;
77876;SDS011;67251;50.844;7.978;2023-03-08T15:35:29;39.53;;;17.13;;
77876;SDS011;67251;50.844;7.978;2023-03-08T15:37:54;18.23;;;7.72;;
77876;SDS011;67251;50.844;7.978;2023-03-08T15:40:21;16.25;;;7.25;;
77876;SDS011;67251;50.844;7.978;2023-03-08T15:42:49;19.80;;;9.18;;
77876;SDS011;67251;50.844;7.978;2023-03-08T15:45:15;24.67;;;10.25;;
77876;SDS011;67251;50.844;7.978;2023-03-08T15:47:41;23.35;;;10.05;;
77876;SDS011;67251;50.844;7.978;2023-03-08T15:50:16;12.38;;;5.35;;
77876;SDS011;67251;50.844;7.978;2023-03-08T15:52:42;14.20;;;7.20;;
77876;SDS011;67251;50.844;7.978;2023-03-08T15:55:10;24.45;;;11.20;;
77876;SDS011;67251;50.844;7.978;2023-03-08T15:57:37;35.45;;;14.85;;
77876;SDS011;67251;50.844;7.978;2023-03-08T16:00:04;16.95;;;7.88;;
77876;SDS011;67251;50.844;7.978;2023-03-08T16:02:35;15.30;;;8.52;;
77876;SDS011;67251;50.844;7.978;2023-03-08T16:05:01;15.93;;;7.85;;
77876;SDS011;67251;50.844;7.978;2023-03-08T16:07:28;9.10;;;4.18;;
77876;SDS011;67251;50.844;7.978;2023-03-08T16:09:54;13.20;;;6.45;;
77876;SDS011;67251;50.844;7.978;2023-03-08T16:12:19;18.65;;;11.05;;
77876;SDS011;67251;50.844;7.978;2023-03-08T16:14:45;29.63;;;13.35;;
77876;SDS011;67251;50.844;7.978;2023-03-08T16:17:12;84.32;;;35.53;;
77876;SDS011;67251;50.844;7.978;2023-03-08T16:19:38;21.42;;;10.68;;
77876;SDS011;67251;50.844;7.978;2023-03-08T16:22:03;68.93;;;33.35;;
77876;SDS011;67251;50.844;7.978;2023-03-08T16:24:29;23.20;;;12.95;;
77876;SDS011;67251;50.844;7.978;2023-03-08T16:26:54;13.60;;;7.50;;
77876;SDS011;67251;50.844;7.978;2023-03-08T16:29:20;9.07;;;5.38;;
77876;SDS011;67251;50.844;7.978;2023-03-08T16:31:47;12.13;;;5.85;;
77876;SDS011;67251;50.844;7.978;2023-03-08T16:34:13;10.60;;;4.93;;
77876;SDS011;67251;50.844;7.978;2023-03-08T16:36:38;8.15;;;4.53;;
77876;SDS011;67251;50.844;7.978;2023-03-08T16:39:04;8.70;;;4.60;;
77876;SDS011;67251;50.844;7.978;2023-03-08T16:41:34;8.75;;;4.65;;
77876;SDS011;67251;50.844;7.978;2023-03-08T16:44:00;9.38;;;5.15;;
77876;SDS011;67251;50.844;7.978;2023-03-08T16:46:26;9.40;;;4.63;;
77876;SDS011;67251;50.844;7.978;2023-03-08T16:48:52;9.25;;;4.90;;